createdAt,value
2018-09-19T00:00:45.807Z,5.10
2018-09-19T00:04:49.124Z,4.97
2018-09-19T00:08:52.453Z,4.97
2018-09-19T00:12:55.801Z,5.03
2018-09-19T00:16:59.124Z,5.40
2018-09-19T00:21:02.655Z,5.37
2018-09-19T00:25:05.995Z,4.40
2018-09-19T00:29:09.362Z,4.53
2018-09-19T00:33:12.715Z,4.60
2018-09-19T00:37:16.047Z,4.77
2018-09-19T00:41:19.353Z,4.90
2018-09-19T00:45:22.775Z,4.60
2018-09-19T00:49:26.131Z,4.93
2018-09-19T00:53:29.468Z,4.63
2018-09-19T00:57:32.790Z,4.40
2018-09-19T01:01:36.110Z,4.77
2018-09-19T01:05:39.434Z,4.50
2018-09-19T01:09:42.803Z,4.90
2018-09-19T01:13:46.216Z,5.60
2018-09-19T01:17:49.593Z,4.80
2018-09-19T01:21:52.878Z,4.77
2018-09-19T01:25:56.204Z,4.83
2018-09-19T01:29:59.562Z,4.90
2018-09-19T01:34:02.886Z,4.83
2018-09-19T01:38:06.243Z,5.03
2018-09-19T01:42:09.557Z,4.60
2018-09-19T01:46:12.873Z,4.90
2018-09-19T01:50:16.212Z,5.13
2018-09-19T01:54:19.561Z,5.93
2018-09-19T01:58:22.884Z,5.33
2018-09-19T02:02:26.221Z,4.90
2018-09-19T02:06:29.567Z,6.40
2018-09-19T02:10:32.947Z,5.10
2018-09-19T02:14:36.299Z,5.47
2018-09-19T02:18:39.702Z,6.00
2018-09-19T02:22:43.019Z,5.57
2018-09-19T02:26:46.346Z,5.70
2018-09-19T02:30:49.713Z,6.13
2018-09-19T02:34:53.064Z,6.40
2018-09-19T02:38:58.328Z,6.17
2018-09-19T02:43:01.649Z,5.23
2018-09-19T02:47:04.984Z,6.40
2018-09-19T02:51:08.498Z,5.50
2018-09-19T02:55:11.843Z,5.07
2018-09-19T02:59:15.187Z,5.73
2018-09-19T03:03:18.487Z,4.60
2018-09-19T03:07:21.831Z,5.27
2018-09-19T03:11:25.192Z,5.33
2018-09-19T03:15:28.590Z,5.27
2018-09-19T03:19:31.915Z,4.90
2018-09-19T03:23:35.242Z,5.07
2018-09-19T03:27:38.577Z,4.63
2018-09-19T03:31:41.942Z,3.90
2018-09-19T03:35:45.297Z,4.83
2018-09-19T03:39:48.675Z,4.57
2018-09-19T03:43:52.012Z,4.50
2018-09-19T03:47:55.344Z,4.63
2018-09-19T03:51:58.684Z,4.23
2018-09-19T03:56:02.035Z,5.27
2018-09-19T04:00:05.410Z,3.90
2018-09-19T04:04:08.748Z,4.30
2018-09-19T04:08:12.074Z,4.23
2018-09-19T04:12:15.485Z,4.93
2018-09-19T04:16:20.053Z,4.60
2018-09-19T04:20:23.409Z,4.07
2018-09-19T04:24:26.807Z,4.23
2018-09-19T04:28:31.167Z,4.63
2018-09-19T04:32:34.624Z,4.13
2018-09-19T04:36:37.959Z,4.97
2018-09-19T04:40:41.315Z,4.37
2018-09-19T04:44:44.672Z,4.33
2018-09-19T04:48:48.004Z,4.20
2018-09-19T04:52:51.366Z,4.10
2018-09-19T04:56:54.697Z,4.43
2018-09-19T05:00:58.127Z,4.30
2018-09-19T05:05:01.524Z,4.63
2018-09-19T05:09:07.683Z,4.10
2018-09-19T05:13:11.026Z,4.27
2018-09-19T05:17:14.609Z,5.03
2018-09-19T05:21:19.028Z,4.97
2018-09-19T05:25:22.459Z,5.10
2018-09-19T05:29:25.784Z,4.90
2018-09-19T05:33:29.169Z,4.97
2018-09-19T05:37:32.502Z,5.73
2018-09-19T05:41:35.856Z,4.80
2018-09-19T05:45:39.213Z,5.70
2018-09-19T05:49:42.559Z,5.50
2018-09-19T05:53:45.951Z,5.30
2018-09-19T05:57:50.126Z,4.97
2018-09-19T06:01:53.468Z,4.60
2018-09-19T06:05:56.807Z,4.43
2018-09-19T06:10:00.156Z,4.70
2018-09-19T06:14:03.519Z,5.20
2018-09-19T06:18:06.869Z,4.70
2018-09-19T06:22:10.306Z,4.10
2018-09-19T06:26:13.641Z,4.83
2018-09-19T06:30:16.969Z,4.40
2018-09-19T06:34:20.296Z,4.80
2018-09-19T06:38:23.722Z,4.20
2018-09-19T06:42:27.045Z,4.47
2018-09-19T06:46:30.382Z,5.30
2018-09-19T06:50:33.827Z,4.80
2018-09-19T06:54:37.160Z,4.87
2018-09-19T06:58:40.504Z,3.83
2018-09-19T07:02:43.880Z,4.43
2018-09-19T07:06:47.232Z,4.00
2018-09-19T07:10:50.652Z,3.90
2018-09-19T07:14:53.979Z,4.03
2018-09-19T07:18:57.360Z,3.57
2018-09-19T07:23:00.689Z,4.10
2018-09-19T07:27:04.029Z,2.87
2018-09-19T07:31:07.495Z,3.50
2018-09-19T07:35:10.895Z,3.20
2018-09-19T07:39:14.267Z,3.20
2018-09-19T07:43:17.602Z,2.90
2018-09-19T07:47:20.967Z,2.87
2018-09-19T07:51:24.292Z,2.37
2018-09-19T07:55:27.690Z,2.60
2018-09-19T07:59:30.975Z,2.30
2018-09-19T08:03:34.329Z,2.73
2018-09-19T08:07:37.705Z,2.20
2018-09-19T08:11:41.037Z,2.47
2018-09-19T08:15:44.467Z,2.70
2018-09-19T08:19:47.820Z,2.30
2018-09-19T08:23:50.927Z,2.53
2018-09-19T08:27:54.269Z,2.20
2018-09-19T08:31:57.592Z,2.67
2018-09-19T08:36:00.925Z,2.17
2018-09-19T08:40:04.301Z,2.00
2018-09-19T08:44:07.654Z,1.80
2018-09-19T08:48:11.003Z,2.07
2018-09-19T08:52:14.323Z,2.20
2018-09-19T08:56:17.659Z,2.47
2018-09-19T09:00:21.073Z,2.20
2018-09-19T09:04:24.417Z,2.20
2018-09-19T09:08:27.768Z,2.05
2018-09-19T09:12:31.140Z,2.07
2018-09-19T09:16:34.449Z,2.00
2018-09-19T09:20:37.877Z,2.47
2018-09-19T09:24:41.225Z,2.30
2018-09-19T09:28:44.561Z,2.60
2018-09-19T09:32:47.916Z,2.72
2018-09-19T09:36:51.582Z,2.47
2018-09-19T09:40:54.894Z,2.58
2018-09-19T09:44:58.233Z,2.98
2018-09-19T09:49:01.571Z,2.70
2018-09-19T09:53:05.073Z,3.05
2018-09-19T09:57:08.451Z,4.00
2018-09-19T10:01:11.901Z,3.20
2018-09-19T10:05:15.203Z,3.47
2018-09-19T10:09:18.537Z,2.77
2018-09-19T10:13:21.892Z,3.70
2018-09-19T10:17:25.240Z,3.42
2018-09-19T10:21:28.619Z,3.62
2018-09-19T10:25:31.937Z,3.37
2018-09-19T10:29:35.299Z,3.40
2018-09-19T10:33:38.596Z,4.20
2018-09-19T10:37:41.950Z,4.22
2018-09-19T10:41:45.279Z,3.72
2018-09-19T10:45:48.621Z,4.17
2018-09-19T10:49:51.954Z,4.42
2018-09-19T10:53:55.339Z,4.05
2018-09-19T10:57:58.904Z,3.70
2018-09-19T11:02:02.235Z,4.50
2018-09-19T11:06:05.617Z,3.83
2018-09-19T11:10:08.960Z,4.50
2018-09-19T11:14:12.293Z,4.12
2018-09-19T11:18:15.684Z,4.03
2018-09-19T11:22:19.049Z,4.12
2018-09-19T11:26:22.432Z,4.87
2018-09-19T11:30:25.731Z,4.15
2018-09-19T11:34:29.066Z,4.28
2018-09-19T11:38:32.463Z,4.28
2018-09-19T11:42:35.791Z,3.87
2018-09-19T11:46:45.658Z,4.22
2018-09-19T11:50:49.055Z,3.85
2018-09-19T11:54:52.419Z,4.55
2018-09-19T11:58:55.751Z,4.35
2018-09-19T12:02:59.111Z,4.58
2018-09-19T12:07:02.474Z,4.15
2018-09-19T12:11:06.032Z,4.25
2018-09-19T12:15:09.399Z,4.30
2018-09-19T12:19:12.750Z,4.00
2018-09-19T12:23:16.096Z,4.00
2018-09-19T12:27:19.607Z,4.03
2018-09-19T12:31:23.022Z,4.40
2018-09-19T12:35:26.378Z,4.05
2018-09-19T12:39:29.808Z,3.87
2018-09-19T12:43:33.103Z,4.17
2018-09-19T12:47:36.447Z,4.10
2018-09-19T12:51:39.801Z,4.05
2018-09-19T12:55:43.146Z,4.17
2018-09-19T12:59:46.508Z,3.67
2018-09-19T13:03:49.851Z,3.62
2018-09-19T13:07:53.178Z,3.50
2018-09-19T13:11:56.603Z,4.00
2018-09-19T13:15:59.934Z,3.75
2018-09-19T13:20:03.294Z,4.45
2018-09-19T13:24:06.623Z,3.90
2018-09-19T13:28:09.963Z,4.08
2018-09-19T13:32:13.320Z,3.40
2018-09-19T13:36:16.652Z,3.70
2018-09-19T13:40:19.996Z,4.47
2018-09-19T13:44:23.353Z,3.95
2018-09-19T13:48:26.843Z,3.75
2018-09-19T13:52:30.184Z,3.47
2018-09-19T13:56:33.514Z,3.30
2018-09-19T14:00:36.863Z,3.17
2018-09-19T14:04:40.223Z,3.58
2018-09-19T14:08:43.553Z,3.70
2018-09-19T14:12:46.983Z,3.22
2018-09-19T14:16:50.366Z,3.20
2018-09-19T14:20:53.800Z,3.27
2018-09-19T14:24:57.176Z,3.40
2018-09-19T14:29:00.540Z,3.60
2018-09-19T14:33:03.947Z,3.80
2018-09-19T14:37:07.378Z,3.45
2018-09-19T14:41:10.837Z,3.35
2018-09-19T14:45:14.183Z,3.70
2018-09-19T14:49:17.639Z,3.72
2018-09-19T14:53:21.013Z,4.15
2018-09-19T14:57:24.363Z,3.83
2018-09-19T15:01:27.736Z,3.45
2018-09-19T15:05:31.076Z,3.60
2018-09-19T15:09:34.423Z,3.72
2018-09-19T15:13:37.796Z,3.85
2018-09-19T15:17:41.153Z,3.52
2018-09-19T15:21:44.528Z,3.42
2018-09-19T15:25:47.861Z,3.72
2018-09-19T15:29:51.259Z,3.87
2018-09-19T15:33:54.612Z,3.95
2018-09-19T15:37:57.980Z,3.27
2018-09-19T15:42:01.389Z,3.80
2018-09-19T15:46:09.212Z,3.37
2018-09-19T15:50:12.592Z,3.60
2018-09-19T15:54:15.946Z,3.70
2018-09-19T15:58:19.316Z,4.10
2018-09-19T16:02:22.655Z,3.75
2018-09-19T16:06:26.116Z,3.67
2018-09-19T16:10:29.482Z,3.67
2018-09-19T16:14:32.834Z,3.60
2018-09-19T16:18:36.183Z,3.50
2018-09-19T16:22:39.907Z,3.47
2018-09-19T16:26:43.239Z,3.58
2018-09-19T16:30:46.590Z,3.70
2018-09-19T16:34:49.931Z,3.60
2018-09-19T16:38:53.279Z,3.72
2018-09-19T16:42:56.621Z,3.60
2018-09-19T16:47:00.016Z,3.47
2018-09-19T16:51:03.432Z,3.40
2018-09-19T16:55:06.800Z,3.87
2018-09-19T16:59:10.137Z,4.53
2018-09-19T17:03:14.168Z,3.17
2018-09-19T17:07:17.509Z,3.75
2018-09-19T17:11:21.003Z,3.75
2018-09-19T17:15:24.426Z,3.60
2018-09-19T17:19:27.774Z,4.33
2018-09-19T17:23:31.122Z,5.30
2018-09-19T17:27:34.546Z,4.12
2018-09-19T17:31:37.894Z,4.72
2018-09-19T17:35:47.678Z,4.95
2018-09-19T17:39:51.048Z,4.85
2018-09-19T17:43:54.420Z,4.03
2018-09-19T17:47:57.851Z,4.00
2018-09-19T17:52:01.328Z,4.50
2018-09-19T17:56:04.749Z,5.30
2018-09-19T18:00:09.191Z,4.50
2018-09-19T18:04:12.532Z,5.45
2018-09-19T18:08:15.895Z,5.03
2018-09-19T18:12:19.082Z,5.55
2018-09-19T18:16:22.855Z,4.85
2018-09-19T18:20:26.194Z,5.10
2018-09-19T18:24:29.520Z,5.55
2018-09-19T18:28:32.870Z,4.97
2018-09-19T18:32:36.665Z,4.78
2018-09-19T18:36:40.251Z,5.00
2018-09-19T18:40:43.658Z,5.40
2018-09-19T18:44:47.024Z,4.90
2018-09-19T18:48:50.440Z,4.90
2018-09-19T18:52:53.831Z,5.33
2018-09-19T18:56:57.182Z,4.42
2018-09-19T19:01:00.518Z,5.50
2018-09-19T19:05:03.901Z,6.37
2018-09-19T19:09:08.713Z,7.23
2018-09-19T19:13:12.128Z,5.70
2018-09-19T19:17:15.490Z,4.15
2018-09-19T19:21:18.807Z,3.77
2018-09-19T19:25:22.164Z,4.00
2018-09-19T19:29:25.518Z,4.30
2018-09-19T19:33:28.871Z,4.17
2018-09-19T19:37:32.272Z,3.77
2018-09-19T19:41:35.639Z,4.37
2018-09-19T19:45:38.975Z,3.80
2018-09-19T19:49:42.398Z,3.80
2018-09-19T19:53:45.799Z,3.83
2018-09-19T19:57:49.184Z,3.53
2018-09-19T20:01:52.519Z,4.58
2018-09-19T20:05:55.864Z,4.13
2018-09-19T20:09:59.241Z,3.77
2018-09-19T20:14:02.599Z,4.00
2018-09-19T20:18:05.950Z,4.23
2018-09-19T20:22:10.173Z,3.90
2018-09-19T20:26:13.535Z,3.80
2018-09-19T20:30:16.943Z,4.33
2018-09-19T20:34:20.317Z,4.33
2018-09-19T20:38:23.623Z,4.00
2018-09-19T20:42:27.003Z,4.13
2018-09-19T20:46:30.343Z,4.63
2018-09-19T20:50:33.723Z,4.93
2018-09-19T20:54:37.682Z,4.27
2018-09-19T20:58:41.019Z,4.10
2018-09-19T21:02:44.372Z,4.00
2018-09-19T21:06:47.713Z,4.57
2018-09-19T21:10:51.114Z,5.03
2018-09-19T21:14:54.451Z,4.87
2018-09-19T21:18:57.796Z,4.10
2018-09-19T21:23:01.134Z,4.70
2018-09-19T21:27:04.658Z,4.47
2018-09-19T21:31:09.421Z,4.53
2018-09-19T21:35:14.006Z,4.00
2018-09-19T21:39:17.437Z,4.67
2018-09-19T21:43:20.856Z,4.23
2018-09-19T21:47:24.234Z,4.00
2018-09-19T21:51:27.572Z,4.00
2018-09-19T21:55:30.923Z,4.47
2018-09-19T21:59:34.314Z,4.63
2018-09-19T22:03:39.432Z,4.40
2018-09-19T22:07:42.834Z,4.63
2018-09-19T22:11:46.175Z,4.10
2018-09-19T22:15:49.515Z,4.50
2018-09-19T22:19:53.054Z,4.57
2018-09-19T22:23:56.387Z,4.57
2018-09-19T22:27:59.709Z,4.87
2018-09-19T22:32:03.077Z,4.57
2018-09-19T22:36:06.448Z,4.40
2018-09-19T22:40:09.787Z,4.10
2018-09-19T22:44:13.126Z,4.73
2018-09-19T22:48:16.463Z,3.83
2018-09-19T22:52:19.830Z,4.30
2018-09-19T22:56:23.175Z,4.10
2018-09-19T23:00:26.529Z,4.13
2018-09-19T23:04:29.859Z,3.97
2018-09-19T23:08:33.231Z,4.47
2018-09-19T23:12:36.572Z,4.57
2018-09-19T23:16:39.916Z,4.60
2018-09-19T23:20:43.293Z,4.13
2018-09-19T23:24:46.628Z,4.77
2018-09-19T23:28:56.565Z,5.83
2018-09-19T23:32:59.901Z,5.20
2018-09-19T23:37:03.388Z,5.30
2018-09-19T23:41:06.776Z,4.97
2018-09-19T23:45:10.144Z,5.10
2018-09-19T23:49:13.490Z,4.67
2018-09-19T23:53:16.862Z,4.13
2018-09-19T23:57:20.203Z,4.77
